sensor_id;sensor_type;location;lat;lon;timestamp;temperature;humidity
27016;DHT22;14557;0.000;0.000;2022-08-30T00:00:53;24.10;59.90
27016;DHT22;14557;0.000;0.000;2022-08-30T00:03:33;24.10;60.00
27016;DHT22;14557;0.000;0.000;2022-08-30T00:05:59;24.10;59.90
27016;DHT22;14557;0.000;0.000;2022-08-30T00:08:25;24.10;60.00
27016;DHT22;14557;0.000;0.000;2022-08-30T00:10:51;24.10;59.90
27016;DHT22;14557;0.000;0.000;2022-08-30T00:13:18;24.00;59.90
27016;DHT22;14557;0.000;0.000;2022-08-30T00:15:45;24.00;59.90
27016;DHT22;14557;0.000;0.000;2022-08-30T00:18:11;24.00;59.90
27016;DHT22;14557;0.000;0.000;2022-08-30T00:20:38;24.00;60.10
27016;DHT22;14557;0.000;0.000;2022-08-30T00:23:04;24.00;59.90
27016;DHT22;14557;0.000;0.000;2022-08-30T00:25:30;24.00;59.80
27016;DHT22;14557;0.000;0.000;2022-08-30T00:27:56;24.00;59.80
27016;DHT22;14557;0.000;0.000;2022-08-30T00:30:22;24.00;59.80
27016;DHT22;14557;0.000;0.000;2022-08-30T00:32:48;24.00;59.70
27016;DHT22;14557;0.000;0.000;2022-08-30T00:35:16;24.00;59.70
27016;DHT22;14557;0.000;0.000;2022-08-30T00:37:42;24.00;59.70
27016;DHT22;14557;0.000;0.000;2022-08-30T00:40:09;23.90;59.70
27016;DHT22;14557;0.000;0.000;2022-08-30T00:42:36;23.90;59.70
27016;DHT22;14557;0.000;0.000;2022-08-30T00:45:19;23.90;59.70
27016;DHT22;14557;0.000;0.000;2022-08-30T00:47:45;23.90;59.70
27016;DHT22;14557;0.000;0.000;2022-08-30T00:50:14;23.90;59.70
27016;DHT22;14557;0.000;0.000;2022-08-30T00:52:42;23.90;59.60
27016;DHT22;14557;0.000;0.000;2022-08-30T00:55:09;23.90;59.60
27016;DHT22;14557;0.000;0.000;2022-08-30T00:57:38;23.90;59.60
27016;DHT22;14557;0.000;0.000;2022-08-30T01:00:05;23.80;59.70
27016;DHT22;14557;0.000;0.000;2022-08-30T01:02:31;23.80;59.60
27016;DHT22;14557;0.000;0.000;2022-08-30T01:05:00;23.80;59.70
27016;DHT22;14557;0.000;0.000;2022-08-30T01:07:26;23.80;59.70
27016;DHT22;14557;0.000;0.000;2022-08-30T01:09:53;23.80;59.70
27016;DHT22;14557;0.000;0.000;2022-08-30T01:12:19;23.70;59.70
27016;DHT22;14557;0.000;0.000;2022-08-30T01:14:45;23.70;59.50
27016;DHT22;14557;0.000;0.000;2022-08-30T01:17:12;23.70;59.50
27016;DHT22;14557;0.000;0.000;2022-08-30T01:19:57;23.70;59.60
27016;DHT22;14557;0.000;0.000;2022-08-30T01:25:18;23.70;59.50
27016;DHT22;14557;0.000;0.000;2022-08-30T01:27:51;23.70;60.10
27016;DHT22;14557;0.000;0.000;2022-08-30T01:30:18;23.70;59.40
27016;DHT22;14557;0.000;0.000;2022-08-30T01:32:45;23.70;59.40
27016;DHT22;14557;0.000;0.000;2022-08-30T01:35:14;23.70;59.50
27016;DHT22;14557;0.000;0.000;2022-08-30T01:37:41;23.70;59.50
27016;DHT22;14557;0.000;0.000;2022-08-30T01:40:08;23.70;59.50
27016;DHT22;14557;0.000;0.000;2022-08-30T01:42:34;23.60;59.50
27016;DHT22;14557;0.000;0.000;2022-08-30T01:45:00;23.60;59.40
27016;DHT22;14557;0.000;0.000;2022-08-30T01:47:26;23.60;59.40
27016;DHT22;14557;0.000;0.000;2022-08-30T01:49:52;23.60;59.40
27016;DHT22;14557;0.000;0.000;2022-08-30T01:52:18;23.60;59.30
27016;DHT22;14557;0.000;0.000;2022-08-30T01:54:45;23.50;59.30
27016;DHT22;14557;0.000;0.000;2022-08-30T01:57:14;23.50;59.30
27016;DHT22;14557;0.000;0.000;2022-08-30T01:59:41;23.50;59.30
27016;DHT22;14557;0.000;0.000;2022-08-30T02:02:08;23.50;59.40
27016;DHT22;14557;0.000;0.000;2022-08-30T02:04:35;23.50;59.40
27016;DHT22;14557;0.000;0.000;2022-08-30T02:07:02;23.50;59.40
27016;DHT22;14557;0.000;0.000;2022-08-30T02:09:28;23.50;59.40
27016;DHT22;14557;0.000;0.000;2022-08-30T02:11:53;23.50;59.40
27016;DHT22;14557;0.000;0.000;2022-08-30T02:14:19;23.40;59.40
27016;DHT22;14557;0.000;0.000;2022-08-30T02:16:45;23.40;59.40
27016;DHT22;14557;0.000;0.000;2022-08-30T02:19:11;23.40;59.50
27016;DHT22;14557;0.000;0.000;2022-08-30T02:21:37;23.40;59.50
27016;DHT22;14557;0.000;0.000;2022-08-30T02:24:03;23.40;59.50
27016;DHT22;14557;0.000;0.000;2022-08-30T02:26:29;23.30;59.40
27016;DHT22;14557;0.000;0.000;2022-08-30T02:28:55;23.30;59.50
27016;DHT22;14557;0.000;0.000;2022-08-30T02:31:21;23.40;59.50
27016;DHT22;14557;0.000;0.000;2022-08-30T02:33:49;23.30;59.50
27016;DHT22;14557;0.000;0.000;2022-08-30T02:36:15;23.30;59.60
27016;DHT22;14557;0.000;0.000;2022-08-30T02:38:42;23.20;59.50
27016;DHT22;14557;0.000;0.000;2022-08-30T02:41:08;23.20;59.60
27016;DHT22;14557;0.000;0.000;2022-08-30T02:43:33;23.20;59.60
27016;DHT22;14557;0.000;0.000;2022-08-30T02:45:59;23.20;59.70
27016;DHT22;14557;0.000;0.000;2022-08-30T02:48:25;23.20;59.60
27016;DHT22;14557;0.000;0.000;2022-08-30T02:50:51;23.20;59.60
27016;DHT22;14557;0.000;0.000;2022-08-30T02:53:18;23.20;59.70
27016;DHT22;14557;0.000;0.000;2022-08-30T02:55:46;23.10;59.70
27016;DHT22;14557;0.000;0.000;2022-08-30T02:58:12;23.10;59.70
27016;DHT22;14557;0.000;0.000;2022-08-30T03:00:38;23.10;59.70
27016;DHT22;14557;0.000;0.000;2022-08-30T03:03:05;23.10;59.70
27016;DHT22;14557;0.000;0.000;2022-08-30T03:05:32;23.10;59.70
27016;DHT22;14557;0.000;0.000;2022-08-30T03:07:58;23.10;59.60
27016;DHT22;14557;0.000;0.000;2022-08-30T03:10:25;23.10;59.70
27016;DHT22;14557;0.000;0.000;2022-08-30T03:12:55;23.10;59.70
27016;DHT22;14557;0.000;0.000;2022-08-30T03:15:21;23.10;59.70
27016;DHT22;14557;0.000;0.000;2022-08-30T03:17:51;23.10;59.80
27016;DHT22;14557;0.000;0.000;2022-08-30T03:20:18;23.00;59.80
27016;DHT22;14557;0.000;0.000;2022-08-30T03:22:44;23.00;59.80
27016;DHT22;14557;0.000;0.000;2022-08-30T03:25:10;23.00;59.80
27016;DHT22;14557;0.000;0.000;2022-08-30T03:27:36;23.00;59.80
27016;DHT22;14557;0.000;0.000;2022-08-30T03:30:03;23.00;59.80
27016;DHT22;14557;0.000;0.000;2022-08-30T03:32:29;23.00;59.80
27016;DHT22;14557;0.000;0.000;2022-08-30T03:34:55;23.00;59.80
27016;DHT22;14557;0.000;0.000;2022-08-30T03:37:21;23.00;59.80
27016;DHT22;14557;0.000;0.000;2022-08-30T03:39:47;23.00;59.90
27016;DHT22;14557;0.000;0.000;2022-08-30T03:42:13;23.00;59.90
27016;DHT22;14557;0.000;0.000;2022-08-30T03:44:39;23.00;59.90
27016;DHT22;14557;0.000;0.000;2022-08-30T03:47:05;22.90;59.90
27016;DHT22;14557;0.000;0.000;2022-08-30T03:49:32;22.90;59.90
27016;DHT22;14557;0.000;0.000;2022-08-30T03:51:58;22.90;59.90
27016;DHT22;14557;0.000;0.000;2022-08-30T03:54:24;22.90;59.90
27016;DHT22;14557;0.000;0.000;2022-08-30T03:56:50;22.90;59.90
27016;DHT22;14557;0.000;0.000;2022-08-30T03:59:16;22.90;59.90
27016;DHT22;14557;0.000;0.000;2022-08-30T04:01:41;22.80;59.90
27016;DHT22;14557;0.000;0.000;2022-08-30T04:04:10;22.80;59.90
27016;DHT22;14557;0.000;0.000;2022-08-30T04:06:36;22.80;59.90
27016;DHT22;14557;0.000;0.000;2022-08-30T04:09:02;22.80;60.00
27016;DHT22;14557;0.000;0.000;2022-08-30T04:11:28;22.80;60.00
27016;DHT22;14557;0.000;0.000;2022-08-30T04:13:54;22.80;60.00
27016;DHT22;14557;0.000;0.000;2022-08-30T04:16:22;22.70;59.90
27016;DHT22;14557;0.000;0.000;2022-08-30T04:18:48;22.70;60.00
27016;DHT22;14557;0.000;0.000;2022-08-30T04:21:14;22.70;60.10
27016;DHT22;14557;0.000;0.000;2022-08-30T04:23:40;22.70;60.10
27016;DHT22;14557;0.000;0.000;2022-08-30T04:26:06;22.70;60.10
27016;DHT22;14557;0.000;0.000;2022-08-30T04:28:32;22.70;60.10
27016;DHT22;14557;0.000;0.000;2022-08-30T04:31:00;22.70;60.20
27016;DHT22;14557;0.000;0.000;2022-08-30T04:33:33;22.70;60.20
27016;DHT22;14557;0.000;0.000;2022-08-30T04:36:02;22.70;60.20
27016;DHT22;14557;0.000;0.000;2022-08-30T04:38:29;22.70;60.20
27016;DHT22;14557;0.000;0.000;2022-08-30T04:40:55;22.70;60.30
27016;DHT22;14557;0.000;0.000;2022-08-30T04:43:21;22.60;60.30
27016;DHT22;14557;0.000;0.000;2022-08-30T04:45:50;22.60;60.20
27016;DHT22;14557;0.000;0.000;2022-08-30T04:48:17;22.60;60.30
27016;DHT22;14557;0.000;0.000;2022-08-30T04:50:43;22.60;60.30
27016;DHT22;14557;0.000;0.000;2022-08-30T04:53:09;22.60;60.30
27016;DHT22;14557;0.000;0.000;2022-08-30T04:55:35;22.60;60.30
27016;DHT22;14557;0.000;0.000;2022-08-30T04:58:00;22.60;60.40
27016;DHT22;14557;0.000;0.000;2022-08-30T05:00:26;22.60;60.40
27016;DHT22;14557;0.000;0.000;2022-08-30T05:02:52;22.60;60.50
27016;DHT22;14557;0.000;0.000;2022-08-30T05:05:18;22.60;60.50
27016;DHT22;14557;0.000;0.000;2022-08-30T05:08:02;22.60;60.50
27016;DHT22;14557;0.000;0.000;2022-08-30T05:10:28;22.60;60.50
27016;DHT22;14557;0.000;0.000;2022-08-30T05:12:54;22.60;60.50
27016;DHT22;14557;0.000;0.000;2022-08-30T05:15:20;22.50;60.50
27016;DHT22;14557;0.000;0.000;2022-08-30T05:17:47;22.50;60.60
27016;DHT22;14557;0.000;0.000;2022-08-30T05:20:13;22.50;60.60
27016;DHT22;14557;0.000;0.000;2022-08-30T05:22:41;22.50;60.60
27016;DHT22;14557;0.000;0.000;2022-08-30T05:25:15;22.50;60.70
27016;DHT22;14557;0.000;0.000;2022-08-30T05:27:41;22.40;60.60
27016;DHT22;14557;0.000;0.000;2022-08-30T05:30:08;22.40;60.70
27016;DHT22;14557;0.000;0.000;2022-08-30T05:32:33;22.40;60.70
27016;DHT22;14557;0.000;0.000;2022-08-30T05:34:59;22.40;60.70
27016;DHT22;14557;0.000;0.000;2022-08-30T05:37:25;22.40;60.80
27016;DHT22;14557;0.000;0.000;2022-08-30T05:39:51;22.40;60.80
27016;DHT22;14557;0.000;0.000;2022-08-30T05:42:17;22.40;60.80
27016;DHT22;14557;0.000;0.000;2022-08-30T05:44:43;22.40;60.90
27016;DHT22;14557;0.000;0.000;2022-08-30T05:47:09;22.40;61.70
27016;DHT22;14557;0.000;0.000;2022-08-30T05:49:34;22.30;60.90
27016;DHT22;14557;0.000;0.000;2022-08-30T05:52:00;22.30;61.00
27016;DHT22;14557;0.000;0.000;2022-08-30T05:54:26;22.30;61.00
27016;DHT22;14557;0.000;0.000;2022-08-30T05:56:51;22.30;61.00
27016;DHT22;14557;0.000;0.000;2022-08-30T05:59:17;22.30;61.10
27016;DHT22;14557;0.000;0.000;2022-08-30T06:01:45;22.30;61.10
27016;DHT22;14557;0.000;0.000;2022-08-30T06:04:11;22.30;61.10
27016;DHT22;14557;0.000;0.000;2022-08-30T06:06:39;22.30;61.00
27016;DHT22;14557;0.000;0.000;2022-08-30T06:09:08;22.30;61.10
27016;DHT22;14557;0.000;0.000;2022-08-30T06:11:34;22.30;61.00
27016;DHT22;14557;0.000;0.000;2022-08-30T06:14:01;22.30;61.10
27016;DHT22;14557;0.000;0.000;2022-08-30T06:16:27;22.30;61.10
27016;DHT22;14557;0.000;0.000;2022-08-30T06:18:55;22.30;61.10
27016;DHT22;14557;0.000;0.000;2022-08-30T06:21:22;22.30;61.10
27016;DHT22;14557;0.000;0.000;2022-08-30T06:23:48;22.30;61.20
27016;DHT22;14557;0.000;0.000;2022-08-30T06:26:14;22.30;61.10
27016;DHT22;14557;0.000;0.000;2022-08-30T06:28:40;22.30;61.30
27016;DHT22;14557;0.000;0.000;2022-08-30T06:31:08;22.30;61.20
27016;DHT22;14557;0.000;0.000;2022-08-30T06:33:34;22.20;61.20
27016;DHT22;14557;0.000;0.000;2022-08-30T06:36:09;22.20;61.20
27016;DHT22;14557;0.000;0.000;2022-08-30T06:38:35;22.20;61.20
27016;DHT22;14557;0.000;0.000;2022-08-30T06:41:09;22.20;61.10
27016;DHT22;14557;0.000;0.000;2022-08-30T06:43:35;22.20;61.10
27016;DHT22;14557;0.000;0.000;2022-08-30T06:46:03;22.20;61.10
27016;DHT22;14557;0.000;0.000;2022-08-30T06:48:29;22.20;61.10
27016;DHT22;14557;0.000;0.000;2022-08-30T06:50:55;22.10;61.10
27016;DHT22;14557;0.000;0.000;2022-08-30T06:53:21;22.10;61.20
27016;DHT22;14557;0.000;0.000;2022-08-30T06:56:07;22.10;61.00
27016;DHT22;14557;0.000;0.000;2022-08-30T06:58:35;22.10;61.10
27016;DHT22;14557;0.000;0.000;2022-08-30T07:01:03;22.10;61.10
27016;DHT22;14557;0.000;0.000;2022-08-30T07:03:29;22.10;61.10
27016;DHT22;14557;0.000;0.000;2022-08-30T07:05:56;22.10;61.30
27016;DHT22;14557;0.000;0.000;2022-08-30T07:08:22;22.10;62.20
27016;DHT22;14557;0.000;0.000;2022-08-30T07:10:49;22.00;61.30
27016;DHT22;14557;0.000;0.000;2022-08-30T07:13:16;22.00;61.40
27016;DHT22;14557;0.000;0.000;2022-08-30T07:15:44;22.10;61.30
27016;DHT22;14557;0.000;0.000;2022-08-30T07:18:11;22.00;61.40
27016;DHT22;14557;0.000;0.000;2022-08-30T07:20:55;22.10;61.40
27016;DHT22;14557;0.000;0.000;2022-08-30T07:23:21;22.00;62.10
27016;DHT22;14557;0.000;0.000;2022-08-30T07:25:47;22.10;66.80
27016;DHT22;14557;0.000;0.000;2022-08-30T07:28:13;22.20;69.90
27016;DHT22;14557;0.000;0.000;2022-08-30T07:30:40;22.20;66.00
27016;DHT22;14557;0.000;0.000;2022-08-30T07:33:06;22.20;67.50
27016;DHT22;14557;0.000;0.000;2022-08-30T07:35:31;22.30;67.30
27016;DHT22;14557;0.000;0.000;2022-08-30T07:37:58;22.30;67.80
27016;DHT22;14557;0.000;0.000;2022-08-30T07:40:24;22.30;71.50
27016;DHT22;14557;0.000;0.000;2022-08-30T07:42:50;22.30;70.30
27016;DHT22;14557;0.000;0.000;2022-08-30T07:45:16;22.40;69.00
27016;DHT22;14557;0.000;0.000;2022-08-30T07:47:44;22.30;67.60
27016;DHT22;14557;0.000;0.000;2022-08-30T07:50:10;22.30;66.50
27016;DHT22;14557;0.000;0.000;2022-08-30T07:52:36;22.30;66.90
27016;DHT22;14557;0.000;0.000;2022-08-30T07:55:02;22.30;65.90
27016;DHT22;14557;0.000;0.000;2022-08-30T07:57:28;22.30;72.00
27016;DHT22;14557;0.000;0.000;2022-08-30T07:59:58;22.30;69.70
27016;DHT22;14557;0.000;0.000;2022-08-30T08:02:24;22.30;68.60
27016;DHT22;14557;0.000;0.000;2022-08-30T08:04:50;22.30;67.00
27016;DHT22;14557;0.000;0.000;2022-08-30T08:07:15;22.30;66.50
27016;DHT22;14557;0.000;0.000;2022-08-30T08:09:41;22.30;66.60
27016;DHT22;14557;0.000;0.000;2022-08-30T08:12:07;22.30;65.90
27016;DHT22;14557;0.000;0.000;2022-08-30T08:14:34;22.30;65.30
27016;DHT22;14557;0.000;0.000;2022-08-30T08:17:00;22.30;65.00
27016;DHT22;14557;0.000;0.000;2022-08-30T08:19:25;22.30;66.60
27016;DHT22;14557;0.000;0.000;2022-08-30T08:21:51;22.30;67.00
27016;DHT22;14557;0.000;0.000;2022-08-30T08:24:28;22.30;66.60
27016;DHT22;14557;0.000;0.000;2022-08-30T08:26:54;22.30;65.30
27016;DHT22;14557;0.000;0.000;2022-08-30T08:29:20;22.30;64.50
27016;DHT22;14557;0.000;0.000;2022-08-30T08:31:46;22.30;63.80
27016;DHT22;14557;0.000;0.000;2022-08-30T08:34:12;22.30;63.60
27016;DHT22;14557;0.000;0.000;2022-08-30T08:36:38;22.30;63.20
27016;DHT22;14557;0.000;0.000;2022-08-30T08:39:06;22.30;63.00
27016;DHT22;14557;0.000;0.000;2022-08-30T08:47:23;22.20;62.60
27016;DHT22;14557;0.000;0.000;2022-08-30T08:49:50;22.20;62.60
27016;DHT22;14557;0.000;0.000;2022-08-30T08:52:22;22.20;62.40
27016;DHT22;14557;0.000;0.000;2022-08-30T08:55:11;22.20;62.30
27016;DHT22;14557;0.000;0.000;2022-08-30T08:57:37;22.20;64.10
27016;DHT22;14557;0.000;0.000;2022-08-30T09:00:05;22.30;63.70
27016;DHT22;14557;0.000;0.000;2022-08-30T09:02:44;22.20;63.30
27016;DHT22;14557;0.000;0.000;2022-08-30T09:05:20;22.30;63.00
27016;DHT22;14557;0.000;0.000;2022-08-30T09:07:53;22.30;62.70
27016;DHT22;14557;0.000;0.000;2022-08-30T09:10:21;22.30;62.40
27016;DHT22;14557;0.000;0.000;2022-08-30T09:12:48;22.30;62.30
27016;DHT22;14557;0.000;0.000;2022-08-30T09:15:21;22.20;62.10
27016;DHT22;14557;0.000;0.000;2022-08-30T09:20:33;22.20;61.90
27016;DHT22;14557;0.000;0.000;2022-08-30T09:23:30;22.20;61.60
27016;DHT22;14557;0.000;0.000;2022-08-30T09:26:00;22.20;61.50
27016;DHT22;14557;0.000;0.000;2022-08-30T09:28:30;22.20;61.50
27016;DHT22;14557;0.000;0.000;2022-08-30T09:31:05;22.20;61.40
27016;DHT22;14557;0.000;0.000;2022-08-30T09:33:31;22.20;61.20
27016;DHT22;14557;0.000;0.000;2022-08-30T09:36:12;22.20;61.20
27016;DHT22;14557;0.000;0.000;2022-08-30T09:38:38;22.20;61.30
27016;DHT22;14557;0.000;0.000;2022-08-30T09:41:33;22.20;61.10
27016;DHT22;14557;0.000;0.000;2022-08-30T09:44:16;22.20;61.00
27016;DHT22;14557;0.000;0.000;2022-08-30T09:46:56;22.20;60.90
27016;DHT22;14557;0.000;0.000;2022-08-30T09:49:37;22.20;60.80
27016;DHT22;14557;0.000;0.000;2022-08-30T09:54:47;22.20;60.60
27016;DHT22;14557;0.000;0.000;2022-08-30T10:00:03;22.20;60.40
27016;DHT22;14557;0.000;0.000;2022-08-30T10:05:21;22.20;60.40
27016;DHT22;14557;0.000;0.000;2022-08-30T10:10:45;22.20;60.30
27016;DHT22;14557;0.000;0.000;2022-08-30T10:13:33;22.20;60.20
27016;DHT22;14557;0.000;0.000;2022-08-30T10:16:26;22.20;60.10
27016;DHT22;14557;0.000;0.000;2022-08-30T10:22:02;22.20;60.10
27016;DHT22;14557;0.000;0.000;2022-08-30T10:24:54;22.20;60.00
27016;DHT22;14557;0.000;0.000;2022-08-30T10:27:29;22.20;59.80
27016;DHT22;14557;0.000;0.000;2022-08-30T10:30:05;22.20;59.80
27016;DHT22;14557;0.000;0.000;2022-08-30T10:35:19;22.20;59.70
27016;DHT22;14557;0.000;0.000;2022-08-30T10:38:05;22.20;59.50
27016;DHT22;14557;0.000;0.000;2022-08-30T10:40:35;22.20;59.40
27016;DHT22;14557;0.000;0.000;2022-08-30T10:46:28;22.20;59.30
27016;DHT22;14557;0.000;0.000;2022-08-30T10:48:55;22.20;59.30
27016;DHT22;14557;0.000;0.000;2022-08-30T10:51:43;22.20;59.40
27016;DHT22;14557;0.000;0.000;2022-08-30T10:56:42;22.10;59.20
27016;DHT22;14557;0.000;0.000;2022-08-30T10:59:08;22.10;59.20
27016;DHT22;14557;0.000;0.000;2022-08-30T11:07:18;22.10;59.20
27016;DHT22;14557;0.000;0.000;2022-08-30T11:15:24;22.10;59.20
27016;DHT22;14557;0.000;0.000;2022-08-30T11:26:09;22.10;59.00
27016;DHT22;14557;0.000;0.000;2022-08-30T11:31:07;22.10;58.90
27016;DHT22;14557;0.000;0.000;2022-08-30T11:33:50;22.10;58.80
27016;DHT22;14557;0.000;0.000;2022-08-30T11:43:55;22.10;58.90
27016;DHT22;14557;0.000;0.000;2022-08-30T11:46:40;22.00;58.90
27016;DHT22;14557;0.000;0.000;2022-08-30T11:57:41;22.00;59.00
27016;DHT22;14557;0.000;0.000;2022-08-30T12:03:02;22.00;58.80
27016;DHT22;14557;0.000;0.000;2022-08-30T12:08:08;22.00;59.30
27016;DHT22;14557;0.000;0.000;2022-08-30T12:10:44;22.00;59.30
27016;DHT22;14557;0.000;0.000;2022-08-30T12:16:12;22.00;59.30
27016;DHT22;14557;0.000;0.000;2022-08-30T12:18:50;22.00;59.30
27016;DHT22;14557;0.000;0.000;2022-08-30T12:24:25;22.00;59.20
27016;DHT22;14557;0.000;0.000;2022-08-30T12:26:52;21.90;59.30
27016;DHT22;14557;0.000;0.000;2022-08-30T12:29:24;21.90;59.20
27016;DHT22;14557;0.000;0.000;2022-08-30T12:34:36;22.00;59.30
27016;DHT22;14557;0.000;0.000;2022-08-30T12:37:27;22.00;59.50
27016;DHT22;14557;0.000;0.000;2022-08-30T12:42:34;21.90;59.40
27016;DHT22;14557;0.000;0.000;2022-08-30T12:45:10;21.90;59.40
27016;DHT22;14557;0.000;0.000;2022-08-30T12:47:51;21.90;59.40
27016;DHT22;14557;0.000;0.000;2022-08-30T12:50:22;21.90;60.00
27016;DHT22;14557;0.000;0.000;2022-08-30T12:53:15;21.90;59.40
27016;DHT22;14557;0.000;0.000;2022-08-30T12:56:10;21.90;59.50
27016;DHT22;14557;0.000;0.000;2022-08-30T12:58:52;21.90;59.40
27016;DHT22;14557;0.000;0.000;2022-08-30T13:09:39;21.90;59.40
27016;DHT22;14557;0.000;0.000;2022-08-30T13:12:19;21.90;59.40
27016;DHT22;14557;0.000;0.000;2022-08-30T13:14:45;21.90;59.40
27016;DHT22;14557;0.000;0.000;2022-08-30T13:17:19;21.90;59.50
27016;DHT22;14557;0.000;0.000;2022-08-30T13:23:08;21.90;59.40
27016;DHT22;14557;0.000;0.000;2022-08-30T13:25:36;21.90;61.70
27016;DHT22;14557;0.000;0.000;2022-08-30T13:28:05;22.00;60.30
27016;DHT22;14557;0.000;0.000;2022-08-30T13:30:31;22.00;62.50
27016;DHT22;14557;0.000;0.000;2022-08-30T13:32:58;22.00;61.10
27016;DHT22;14557;0.000;0.000;2022-08-30T13:35:26;22.10;63.00
27016;DHT22;14557;0.000;0.000;2022-08-30T13:37:53;22.10;63.10
27016;DHT22;14557;0.000;0.000;2022-08-30T13:40:20;22.10;62.80
27016;DHT22;14557;0.000;0.000;2022-08-30T13:42:46;22.20;62.80
27016;DHT22;14557;0.000;0.000;2022-08-30T13:45:14;22.20;62.60
27016;DHT22;14557;0.000;0.000;2022-08-30T13:47:40;22.20;62.80
27016;DHT22;14557;0.000;0.000;2022-08-30T13:50:06;22.20;61.90
27016;DHT22;14557;0.000;0.000;2022-08-30T13:52:32;22.20;61.40
27016;DHT22;14557;0.000;0.000;2022-08-30T13:54:57;22.20;60.70
27016;DHT22;14557;0.000;0.000;2022-08-30T13:57:27;22.20;60.30
27016;DHT22;14557;0.000;0.000;2022-08-30T13:59:53;22.20;60.00
27016;DHT22;14557;0.000;0.000;2022-08-30T14:02:18;22.20;59.80
27016;DHT22;14557;0.000;0.000;2022-08-30T14:04:44;22.20;60.00
27016;DHT22;14557;0.000;0.000;2022-08-30T14:07:10;22.20;59.80
27016;DHT22;14557;0.000;0.000;2022-08-30T14:09:36;22.20;59.70
27016;DHT22;14557;0.000;0.000;2022-08-30T14:12:02;22.20;59.60
27016;DHT22;14557;0.000;0.000;2022-08-30T14:14:28;22.20;59.60
27016;DHT22;14557;0.000;0.000;2022-08-30T14:16:54;22.20;59.20
27016;DHT22;14557;0.000;0.000;2022-08-30T14:19:19;22.20;59.20
27016;DHT22;14557;0.000;0.000;2022-08-30T14:21:45;22.20;59.40
27016;DHT22;14557;0.000;0.000;2022-08-30T14:24:11;22.20;59.30
27016;DHT22;14557;0.000;0.000;2022-08-30T14:26:40;22.30;59.10
27016;DHT22;14557;0.000;0.000;2022-08-30T14:29:09;22.30;59.20
27016;DHT22;14557;0.000;0.000;2022-08-30T14:31:37;22.30;59.20
27016;DHT22;14557;0.000;0.000;2022-08-30T14:34:04;22.30;59.10
27016;DHT22;14557;0.000;0.000;2022-08-30T14:36:32;22.30;59.10
27016;DHT22;14557;0.000;0.000;2022-08-30T14:38:59;22.30;59.20
27016;DHT22;14557;0.000;0.000;2022-08-30T14:41:25;22.30;59.10
27016;DHT22;14557;0.000;0.000;2022-08-30T14:43:51;22.30;60.30
27016;DHT22;14557;0.000;0.000;2022-08-30T14:46:16;22.30;59.80
27016;DHT22;14557;0.000;0.000;2022-08-30T14:48:42;22.30;59.50
27016;DHT22;14557;0.000;0.000;2022-08-30T14:51:14;22.40;59.50
27016;DHT22;14557;0.000;0.000;2022-08-30T14:53:41;22.40;59.50
27016;DHT22;14557;0.000;0.000;2022-08-30T14:56:13;22.40;59.50
27016;DHT22;14557;0.000;0.000;2022-08-30T14:58:39;22.40;59.20
27016;DHT22;14557;0.000;0.000;2022-08-30T15:01:07;22.40;59.20
27016;DHT22;14557;0.000;0.000;2022-08-30T15:03:34;22.40;59.10
27016;DHT22;14557;0.000;0.000;2022-08-30T15:06:00;22.40;59.00
27016;DHT22;14557;0.000;0.000;2022-08-30T15:08:25;22.40;58.90
27016;DHT22;14557;0.000;0.000;2022-08-30T15:10:51;22.40;58.90
27016;DHT22;14557;0.000;0.000;2022-08-30T15:13:17;22.50;58.70
27016;DHT22;14557;0.000;0.000;2022-08-30T15:15:43;22.50;58.60
27016;DHT22;14557;0.000;0.000;2022-08-30T15:18:09;22.50;58.50
27016;DHT22;14557;0.000;0.000;2022-08-30T15:20:35;22.50;58.50
27016;DHT22;14557;0.000;0.000;2022-08-30T15:23:01;22.50;58.30
27016;DHT22;14557;0.000;0.000;2022-08-30T15:25:26;22.40;58.90
27016;DHT22;14557;0.000;0.000;2022-08-30T15:27:52;22.50;58.40
27016;DHT22;14557;0.000;0.000;2022-08-30T15:30:18;22.50;58.40
27016;DHT22;14557;0.000;0.000;2022-08-30T15:32:43;22.50;58.20
27016;DHT22;14557;0.000;0.000;2022-08-30T15:35:09;22.40;58.20
27016;DHT22;14557;0.000;0.000;2022-08-30T15:37:35;22.50;58.10
27016;DHT22;14557;0.000;0.000;2022-08-30T15:40:03;22.50;57.90
27016;DHT22;14557;0.000;0.000;2022-08-30T15:42:29;22.50;58.10
27016;DHT22;14557;0.000;0.000;2022-08-30T15:44:55;22.50;58.20
27016;DHT22;14557;0.000;0.000;2022-08-30T15:47:22;22.50;59.10
27016;DHT22;14557;0.000;0.000;2022-08-30T15:49:55;22.50;63.00
27016;DHT22;14557;0.000;0.000;2022-08-30T15:52:21;22.60;68.20
27016;DHT22;14557;0.000;0.000;2022-08-30T15:54:47;22.50;63.20
27016;DHT22;14557;0.000;0.000;2022-08-30T15:57:13;22.50;63.30
27016;DHT22;14557;0.000;0.000;2022-08-30T15:59:39;22.50;61.70
27016;DHT22;14557;0.000;0.000;2022-08-30T16:02:04;22.60;67.50
27016;DHT22;14557;0.000;0.000;2022-08-30T16:04:30;22.60;64.40
27016;DHT22;14557;0.000;0.000;2022-08-30T16:06:56;22.60;64.50
27016;DHT22;14557;0.000;0.000;2022-08-30T16:09:22;22.60;64.40
27016;DHT22;14557;0.000;0.000;2022-08-30T16:11:48;22.60;64.40
27016;DHT22;14557;0.000;0.000;2022-08-30T16:14:14;22.60;63.00
27016;DHT22;14557;0.000;0.000;2022-08-30T16:16:40;22.60;62.00
27016;DHT22;14557;0.000;0.000;2022-08-30T16:19:07;22.60;61.30
27016;DHT22;14557;0.000;0.000;2022-08-30T16:21:34;22.60;61.10
27016;DHT22;14557;0.000;0.000;2022-08-30T16:24:02;22.60;60.70
27016;DHT22;14557;0.000;0.000;2022-08-30T16:26:30;22.60;60.70
27016;DHT22;14557;0.000;0.000;2022-08-30T16:28:56;22.60;63.20
27016;DHT22;14557;0.000;0.000;2022-08-30T16:31:25;22.60;60.90
27016;DHT22;14557;0.000;0.000;2022-08-30T16:33:51;22.60;61.20
27016;DHT22;14557;0.000;0.000;2022-08-30T16:36:17;22.60;60.30
27016;DHT22;14557;0.000;0.000;2022-08-30T16:38:43;22.60;60.10
27016;DHT22;14557;0.000;0.000;2022-08-30T16:41:12;22.60;60.00
27016;DHT22;14557;0.000;0.000;2022-08-30T16:43:38;22.60;60.40
27016;DHT22;14557;0.000;0.000;2022-08-30T16:46:07;22.70;59.70
27016;DHT22;14557;0.000;0.000;2022-08-30T16:48:33;22.60;59.70
27016;DHT22;14557;0.000;0.000;2022-08-30T16:50:59;22.60;59.60
27016;DHT22;14557;0.000;0.000;2022-08-30T16:53:27;22.60;59.70
27016;DHT22;14557;0.000;0.000;2022-08-30T16:55:53;22.60;61.30
27016;DHT22;14557;0.000;0.000;2022-08-30T16:58:19;22.70;60.80
27016;DHT22;14557;0.000;0.000;2022-08-30T17:00:49;22.70;62.20
27016;DHT22;14557;0.000;0.000;2022-08-30T17:03:15;22.70;65.50
27016;DHT22;14557;0.000;0.000;2022-08-30T17:05:41;22.70;67.70
27016;DHT22;14557;0.000;0.000;2022-08-30T17:08:10;22.70;69.80
27016;DHT22;14557;0.000;0.000;2022-08-30T17:10:36;22.90;62.80
27016;DHT22;14557;0.000;0.000;2022-08-30T17:13:02;23.10;63.30
27016;DHT22;14557;0.000;0.000;2022-08-30T17:15:28;23.10;62.40
27016;DHT22;14557;0.000;0.000;2022-08-30T17:17:54;23.10;61.50
27016;DHT22;14557;0.000;0.000;2022-08-30T17:20:20;23.10;60.10
27016;DHT22;14557;0.000;0.000;2022-08-30T17:22:46;23.20;59.40
27016;DHT22;14557;0.000;0.000;2022-08-30T17:25:13;23.30;58.90
27016;DHT22;14557;0.000;0.000;2022-08-30T17:27:38;23.40;58.90
27016;DHT22;14557;0.000;0.000;2022-08-30T17:30:06;23.50;58.50
27016;DHT22;14557;0.000;0.000;2022-08-30T17:32:31;23.70;58.40